createdAt,value
2019-03-26T00:00:19.645Z,98.83
2019-03-26T00:01:19.628Z,99.02
2019-03-26T00:02:19.603Z,99.02
2019-03-26T00:03:19.585Z,99.41
2019-03-26T00:04:19.560Z,99.69
2019-03-26T00:05:19.543Z,99.50
2019-03-26T00:06:19.528Z,99.69
2019-03-26T00:07:19.502Z,99.12
2019-03-26T00:08:19.479Z,99.50
2019-03-26T00:09:19.476Z,99.50
2019-03-26T00:10:19.440Z,99.31
2019-03-26T00:11:19.421Z,99.31
2019-03-26T00:12:19.398Z,99.60
2019-03-26T00:13:19.381Z,98.74
2019-03-26T00:14:19.357Z,99.50
2019-03-26T00:15:19.332Z,99.60
2019-03-26T00:16:19.312Z,99.79
2019-03-26T00:17:19.295Z,98.55
2019-03-26T00:18:19.274Z,98.83
2019-03-26T00:19:19.253Z,98.93
2019-03-26T00:20:19.229Z,98.50
2019-03-26T00:21:19.215Z,98.55
2019-03-26T00:22:19.190Z,99.41
2019-03-26T00:23:19.171Z,98.74
2019-03-26T00:24:19.150Z,98.74
2019-03-26T00:25:19.129Z,98.27
2019-03-26T00:26:19.108Z,98.79
2019-03-26T00:27:19.089Z,98.93
2019-03-26T00:28:19.068Z,99.50
2019-03-26T00:29:19.047Z,98.93
2019-03-26T00:30:19.028Z,98.55
2019-03-26T00:31:19.007Z,98.27
2019-03-26T00:32:18.986Z,98.27
2019-03-26T00:33:18.979Z,98.27
2019-03-26T00:34:19.801Z,98.17
2019-03-26T00:35:18.923Z,97.60
2019-03-26T00:36:18.905Z,98.17
2019-03-26T00:37:18.885Z,98.65
2019-03-26T00:38:18.867Z,98.60
2019-03-26T00:39:18.843Z,98.50
2019-03-26T00:40:18.820Z,98.41
2019-03-26T00:41:18.802Z,98.17
2019-03-26T00:42:18.791Z,98.60
2019-03-26T00:43:18.759Z,99.02
2019-03-26T00:44:18.739Z,98.12
2019-03-26T00:45:18.722Z,97.60
2019-03-26T00:46:18.700Z,97.74
2019-03-26T00:47:18.680Z,97.83
2019-03-26T00:48:18.742Z,97.45
2019-03-26T00:49:18.640Z,97.55
2019-03-26T00:50:18.623Z,97.64
2019-03-26T00:51:18.596Z,97.64
2019-03-26T00:52:18.577Z,97.55
2019-03-26T00:53:18.554Z,98.12
2019-03-26T00:54:18.539Z,98.03
2019-03-26T00:55:22.908Z,98.60
2019-03-26T00:56:18.495Z,98.60
2019-03-26T00:57:18.469Z,99.16
2019-03-26T00:58:18.458Z,98.69
2019-03-26T00:59:18.436Z,98.60
2019-03-26T01:00:18.414Z,98.50
2019-03-26T01:01:18.396Z,98.69
2019-03-26T01:02:18.371Z,98.50
2019-03-26T01:03:18.347Z,98.60
2019-03-26T01:04:31.760Z,98.03
2019-03-26T01:05:18.315Z,98.60
2019-03-26T01:06:18.284Z,98.69
2019-03-26T01:07:18.270Z,98.97
2019-03-26T01:08:18.247Z,98.69
2019-03-26T01:09:18.223Z,99.07
2019-03-26T01:10:18.206Z,98.60
2019-03-26T01:11:18.185Z,97.36
2019-03-26T01:12:18.163Z,98.03
2019-03-26T01:13:18.141Z,97.45
2019-03-26T01:14:18.120Z,97.93
2019-03-26T01:15:18.099Z,97.93
2019-03-26T01:16:18.079Z,97.64
2019-03-26T01:17:18.066Z,96.98
2019-03-26T01:18:18.036Z,96.60
2019-03-26T01:19:18.020Z,96.41
2019-03-26T01:20:17.996Z,96.60
2019-03-26T01:21:17.976Z,96.03
2019-03-26T01:22:17.957Z,95.65
2019-03-26T01:23:17.937Z,96.12
2019-03-26T01:24:17.916Z,95.75
2019-03-26T01:25:17.897Z,96.03
2019-03-26T01:26:17.872Z,95.65
2019-03-26T01:27:17.852Z,95.27
2019-03-26T01:28:17.832Z,94.89
2019-03-26T01:29:17.810Z,94.70
2019-03-26T01:30:17.793Z,94.98
2019-03-26T01:31:17.769Z,95.46
2019-03-26T01:32:17.746Z,95.36
2019-03-26T01:33:17.727Z,94.89
2019-03-26T01:34:17.706Z,94.60
2019-03-26T01:35:17.695Z,95.17
2019-03-26T01:36:17.663Z,95.17
2019-03-26T01:37:17.714Z,94.98
2019-03-26T01:38:17.622Z,95.46
2019-03-26T01:39:17.603Z,95.08
2019-03-26T01:40:17.585Z,94.98
2019-03-26T01:41:17.559Z,95.27
2019-03-26T01:42:17.540Z,95.36
2019-03-26T01:43:17.522Z,95.27
2019-03-26T01:44:17.498Z,95.36
2019-03-26T01:45:17.527Z,95.36
2019-03-26T01:46:17.460Z,95.36
2019-03-26T01:47:17.441Z,94.89
2019-03-26T01:48:17.417Z,94.89
2019-03-26T01:49:17.397Z,94.22
2019-03-26T01:50:17.377Z,93.46
2019-03-26T01:51:17.357Z,94.03
2019-03-26T01:52:17.335Z,94.22
2019-03-26T01:53:20.190Z,94.60
2019-03-26T01:54:17.294Z,94.22
2019-03-26T01:55:17.272Z,94.60
2019-03-26T01:56:17.249Z,94.60
2019-03-26T01:57:17.233Z,93.84
2019-03-26T01:58:17.212Z,93.65
2019-03-26T01:59:17.191Z,94.03
2019-03-26T02:00:17.170Z,93.37
2019-03-26T02:01:17.149Z,93.18
2019-03-26T02:02:17.127Z,93.94
2019-03-26T02:03:17.111Z,93.94
2019-03-26T02:04:17.089Z,94.03
2019-03-26T02:05:17.069Z,92.80
2019-03-26T02:06:17.048Z,92.80
2019-03-26T02:07:17.025Z,93.37
2019-03-26T02:08:17.009Z,93.18
2019-03-26T02:09:16.982Z,93.46
2019-03-26T02:10:16.961Z,93.18
2019-03-26T02:11:16.940Z,93.27
2019-03-26T02:12:16.927Z,93.27
2019-03-26T02:13:16.902Z,93.18
2019-03-26T02:14:16.890Z,93.27
2019-03-26T02:15:16.863Z,93.46
2019-03-26T02:16:16.836Z,93.27
2019-03-26T02:17:16.818Z,92.89
2019-03-26T02:18:16.795Z,92.32
2019-03-26T02:19:16.780Z,92.61
2019-03-26T02:20:16.755Z,92.51
2019-03-26T02:21:16.734Z,92.32
2019-03-26T02:22:16.717Z,92.51
2019-03-26T02:23:16.693Z,93.27
2019-03-26T02:24:16.676Z,93.27
2019-03-26T02:25:16.652Z,93.18
2019-03-26T02:26:16.629Z,93.18
2019-03-26T02:27:16.621Z,93.46
2019-03-26T02:28:16.590Z,93.46
2019-03-26T02:29:16.570Z,93.37
2019-03-26T02:30:16.552Z,92.70
2019-03-26T02:31:16.528Z,92.51
2019-03-26T02:32:16.505Z,92.41
2019-03-26T02:33:16.489Z,92.89
2019-03-26T02:34:16.468Z,92.70
2019-03-26T02:35:18.819Z,92.13
2019-03-26T02:36:16.422Z,92.89
2019-03-26T02:37:16.408Z,92.61
2019-03-26T02:38:16.384Z,92.80
2019-03-26T02:39:16.362Z,92.89
2019-03-26T02:40:16.345Z,92.41
2019-03-26T02:41:16.321Z,92.70
2019-03-26T02:42:16.303Z,92.22
2019-03-26T02:43:16.284Z,91.47
2019-03-26T02:44:16.257Z,91.47
2019-03-26T02:45:16.241Z,91.37
2019-03-26T02:46:16.217Z,91.66
2019-03-26T02:47:16.215Z,91.56
2019-03-26T02:48:16.176Z,90.89
2019-03-26T02:49:16.156Z,91.28
2019-03-26T02:50:16.137Z,90.52
2019-03-26T02:51:16.118Z,90.52
2019-03-26T02:52:16.093Z,90.70
2019-03-26T02:53:16.073Z,90.33
2019-03-26T02:54:16.065Z,90.52
2019-03-26T02:55:16.030Z,90.70
2019-03-26T02:56:16.009Z,90.42
2019-03-26T02:57:15.990Z,90.80
2019-03-26T02:58:15.969Z,90.42
2019-03-26T02:59:15.948Z,90.23
2019-03-26T03:00:16.012Z,90.33
2019-03-26T03:01:15.905Z,90.14
2019-03-26T03:02:15.886Z,90.23
2019-03-26T03:03:15.866Z,91.18
2019-03-26T03:04:15.844Z,90.80
2019-03-26T03:05:15.828Z,90.99
2019-03-26T03:06:15.802Z,90.80
2019-03-26T03:07:15.782Z,91.37
2019-03-26T03:08:15.762Z,90.80
2019-03-26T03:09:15.747Z,91.08
2019-03-26T03:10:15.723Z,91.56
2019-03-26T03:11:15.700Z,91.66
2019-03-26T03:12:15.687Z,91.18
2019-03-26T03:13:15.664Z,91.75
2019-03-26T03:14:15.650Z,91.75
2019-03-26T03:15:15.616Z,91.94
2019-03-26T03:16:15.594Z,91.37
2019-03-26T03:17:15.578Z,91.28
2019-03-26T03:18:15.556Z,91.47
2019-03-26T03:19:16.256Z,91.08
2019-03-26T03:20:15.512Z,91.18
2019-03-26T03:21:15.503Z,90.99
2019-03-26T03:22:15.470Z,91.18
2019-03-26T03:23:15.458Z,90.80
2019-03-26T03:24:15.430Z,90.89
2019-03-26T03:25:15.411Z,90.99
2019-03-26T03:26:15.401Z,91.18
2019-03-26T03:27:15.374Z,91.28
2019-03-26T03:28:15.350Z,91.18
2019-03-26T03:29:15.331Z,91.18
2019-03-26T03:30:15.313Z,91.47
2019-03-26T03:31:15.287Z,91.66
2019-03-26T03:32:15.269Z,91.08
2019-03-26T03:33:15.257Z,91.56
2019-03-26T03:34:15.223Z,91.47
2019-03-26T03:35:15.203Z,91.28
2019-03-26T03:36:15.192Z,91.56
2019-03-26T03:37:15.163Z,91.56
2019-03-26T03:38:15.140Z,91.47
2019-03-26T03:39:15.125Z,91.47
2019-03-26T03:40:15.103Z,91.28
2019-03-26T03:41:15.082Z,92.03
2019-03-26T03:42:15.058Z,92.03
2019-03-26T03:43:15.045Z,92.22
2019-03-26T03:44:15.017Z,92.22
2019-03-26T03:45:15.000Z,92.22
2019-03-26T03:46:14.980Z,92.51
2019-03-26T03:47:14.956Z,91.94
2019-03-26T03:48:14.935Z,91.75
2019-03-26T03:49:14.931Z,92.03
2019-03-26T03:50:14.896Z,91.94
2019-03-26T03:51:14.873Z,91.37
2019-03-26T03:52:14.853Z,91.08
2019-03-26T03:53:14.834Z,91.08
2019-03-26T03:54:14.815Z,91.37
2019-03-26T03:55:14.792Z,90.99
2019-03-26T03:56:14.772Z,91.28
2019-03-26T03:57:14.751Z,90.70
2019-03-26T03:58:14.732Z,90.14
2019-03-26T03:59:14.709Z,89.85
2019-03-26T04:00:14.689Z,89.66
2019-03-26T04:01:14.670Z,89.28
2019-03-26T04:02:14.649Z,89.56
2019-03-26T04:03:14.634Z,89.28
2019-03-26T04:04:14.607Z,89.56
2019-03-26T04:05:14.584Z,89.28
2019-03-26T04:06:14.561Z,89.00
2019-03-26T04:07:14.541Z,88.80
2019-03-26T04:08:14.520Z,88.52
2019-03-26T04:09:14.507Z,88.61
2019-03-26T04:10:14.480Z,88.71
2019-03-26T04:11:14.458Z,88.52
2019-03-26T04:12:14.437Z,88.71
2019-03-26T04:13:14.416Z,88.90
2019-03-26T04:14:14.414Z,88.80
2019-03-26T04:15:14.379Z,88.61
2019-03-26T04:16:14.360Z,88.33
2019-03-26T04:17:14.336Z,88.61
2019-03-26T04:18:14.318Z,89.18
2019-03-26T04:19:14.294Z,88.52
2019-03-26T04:20:14.272Z,88.61
2019-03-26T04:21:14.255Z,88.61
2019-03-26T04:22:14.233Z,88.80
2019-03-26T04:23:14.214Z,88.61
2019-03-26T04:24:14.191Z,88.61
2019-03-26T04:25:14.168Z,88.71
2019-03-26T04:26:14.150Z,88.42
2019-03-26T04:27:14.128Z,89.28
2019-03-26T04:28:14.107Z,89.18
2019-03-26T04:29:14.089Z,88.42
2019-03-26T04:30:14.065Z,88.80
2019-03-26T04:31:14.049Z,88.71
2019-03-26T04:32:14.030Z,88.52
2019-03-26T04:33:14.002Z,88.61
2019-03-26T04:34:13.981Z,88.61
2019-03-26T04:35:13.977Z,88.42
2019-03-26T04:36:25.390Z,88.42
2019-03-26T04:37:13.921Z,88.71
2019-03-26T04:38:13.903Z,88.52
2019-03-26T04:39:13.880Z,88.42
2019-03-26T04:40:13.863Z,88.04
2019-03-26T04:41:13.838Z,88.23
2019-03-26T04:42:13.826Z,88.33
2019-03-26T04:43:13.803Z,88.61
2019-03-26T04:44:13.784Z,88.71
2019-03-26T04:45:13.758Z,88.52
2019-03-26T04:46:13.738Z,87.95
2019-03-26T04:47:13.715Z,86.99
2019-03-26T04:48:13.695Z,86.99
2019-03-26T04:49:13.676Z,86.90
2019-03-26T04:50:13.651Z,86.43
2019-03-26T04:51:13.632Z,85.47
2019-03-26T04:52:13.610Z,85.19
2019-03-26T04:53:13.590Z,84.52
2019-03-26T04:54:13.568Z,84.52
2019-03-26T04:55:13.552Z,84.81
2019-03-26T04:56:13.529Z,84.20
2019-03-26T04:57:13.561Z,85.15
2019-03-26T04:58:13.484Z,85.15
2019-03-26T04:59:13.469Z,84.77
2019-03-26T05:00:13.443Z,85.34
2019-03-26T05:01:13.423Z,85.34
2019-03-26T05:02:13.412Z,84.81
2019-03-26T05:03:13.381Z,84.95
2019-03-26T05:04:13.361Z,85.05
2019-03-26T05:05:13.337Z,84.67
2019-03-26T05:06:13.324Z,84.77
2019-03-26T05:07:13.301Z,84.77
2019-03-26T05:08:13.277Z,84.48
2019-03-26T05:09:13.254Z,84.62
2019-03-26T05:10:13.237Z,84.81
2019-03-26T05:11:13.219Z,84.43
2019-03-26T05:12:13.191Z,84.52
2019-03-26T05:13:13.172Z,84.05
2019-03-26T05:14:13.151Z,83.67
2019-03-26T05:15:13.130Z,83.10
2019-03-26T05:16:13.107Z,82.62
2019-03-26T05:17:13.092Z,82.34
2019-03-26T05:18:13.066Z,81.38
2019-03-26T05:19:13.052Z,81.38
2019-03-26T05:20:13.022Z,81.77
2019-03-26T05:21:13.009Z,81.96
2019-03-26T05:22:23.658Z,81.48
2019-03-26T05:23:12.963Z,81.48
2019-03-26T05:24:12.945Z,81.67
2019-03-26T05:25:12.922Z,81.01
2019-03-26T05:26:12.900Z,80.91
2019-03-26T05:27:12.880Z,81.38
2019-03-26T05:28:12.857Z,81.77
2019-03-26T05:29:12.837Z,81.48
2019-03-26T05:30:12.820Z,81.58
2019-03-26T05:31:12.796Z,81.38
2019-03-26T05:32:12.773Z,81.58
2019-03-26T05:33:12.754Z,81.58
2019-03-26T05:34:12.741Z,81.77
2019-03-26T05:35:12.716Z,81.67
2019-03-26T05:36:12.695Z,81.67
2019-03-26T05:37:12.675Z,81.67
2019-03-26T05:38:12.655Z,81.67
2019-03-26T05:39:12.636Z,82.34
2019-03-26T05:40:12.612Z,82.34
2019-03-26T05:41:12.599Z,81.48
2019-03-26T05:42:12.572Z,81.67
2019-03-26T05:43:12.552Z,81.96
2019-03-26T05:44:12.529Z,81.77
2019-03-26T05:45:12.510Z,81.96
2019-03-26T05:46:12.490Z,81.67
2019-03-26T05:47:12.468Z,81.71
2019-03-26T05:48:12.446Z,82.15
2019-03-26T05:49:12.432Z,82.05
2019-03-26T05:50:12.405Z,81.96
2019-03-26T05:51:12.386Z,81.67
2019-03-26T05:52:12.366Z,81.58
2019-03-26T05:53:12.353Z,82.05
2019-03-26T05:54:12.324Z,81.86
2019-03-26T05:55:12.308Z,81.58
2019-03-26T05:56:12.287Z,81.71
2019-03-26T05:57:12.271Z,81.10
2019-03-26T05:58:12.244Z,81.38
2019-03-26T05:59:12.226Z,81.58
2019-03-26T06:00:12.202Z,81.96
2019-03-26T06:01:12.182Z,82.43
2019-03-26T06:02:15.158Z,81.38
2019-03-26T06:03:12.139Z,81.77
2019-03-26T06:04:12.117Z,82.05
2019-03-26T06:05:12.097Z,81.58
2019-03-26T06:06:12.080Z,81.01
2019-03-26T06:07:12.058Z,81.38
2019-03-26T06:08:12.034Z,81.33
2019-03-26T06:09:12.014Z,81.38
2019-03-26T06:10:11.996Z,81.05
2019-03-26T06:11:11.975Z,81.24
2019-03-26T06:12:11.960Z,80.95
2019-03-26T06:13:11.934Z,81.10
2019-03-26T06:14:11.919Z,81.43
2019-03-26T06:15:11.895Z,80.91
2019-03-26T06:16:11.873Z,81.24
2019-03-26T06:17:11.855Z,80.95
2019-03-26T06:18:11.844Z,81.62
2019-03-26T06:19:11.814Z,81.43
2019-03-26T06:20:11.797Z,81.33
2019-03-26T06:21:11.777Z,81.24
2019-03-26T06:22:11.749Z,81.43
2019-03-26T06:23:11.734Z,81.52
2019-03-26T06:24:11.708Z,81.05
2019-03-26T06:25:11.693Z,81.62
2019-03-26T06:26:11.670Z,81.71
2019-03-26T06:27:11.649Z,81.14
2019-03-26T06:28:11.630Z,81.05
2019-03-26T06:29:11.606Z,81.01
2019-03-26T06:30:11.592Z,81.43
2019-03-26T06:31:11.566Z,81.62
2019-03-26T06:32:11.544Z,81.71
2019-03-26T06:33:11.523Z,81.01
2019-03-26T06:34:11.506Z,80.91
2019-03-26T06:35:11.492Z,81.58
2019-03-26T06:36:11.462Z,81.05
2019-03-26T06:37:17.835Z,80.57
2019-03-26T06:38:11.421Z,80.00
2019-03-26T06:39:11.403Z,80.19
2019-03-26T06:40:11.388Z,80.00
2019-03-26T06:41:11.362Z,79.81
2019-03-26T06:42:11.340Z,79.72
2019-03-26T06:43:11.328Z,79.33
2019-03-26T06:44:11.300Z,79.62
2019-03-26T06:45:11.290Z,80.00
2019-03-26T06:46:11.267Z,80.38
2019-03-26T06:47:11.242Z,80.29
2019-03-26T06:48:11.219Z,80.66
2019-03-26T06:49:11.201Z,80.29
2019-03-26T06:50:11.184Z,79.81
2019-03-26T06:51:11.158Z,79.81
2019-03-26T06:52:11.145Z,80.19
2019-03-26T06:53:11.116Z,79.91
2019-03-26T06:54:11.094Z,79.91
2019-03-26T06:55:11.084Z,79.81
2019-03-26T06:56:11.056Z,80.00
2019-03-26T06:57:11.034Z,80.76
2019-03-26T06:58:11.013Z,80.66
2019-03-26T06:59:10.994Z,80.29
2019-03-26T07:00:10.976Z,80.57
2019-03-26T07:01:10.955Z,80.47
2019-03-26T07:02:10.936Z,81.10
2019-03-26T07:03:10.916Z,81.62
2019-03-26T07:04:10.894Z,81.43
2019-03-26T07:05:10.872Z,81.90
2019-03-26T07:06:10.855Z,81.62
2019-03-26T07:07:10.836Z,81.81
2019-03-26T07:08:10.812Z,81.43
2019-03-26T07:09:10.801Z,81.90
2019-03-26T07:10:10.769Z,81.52
2019-03-26T07:11:10.752Z,82.48
2019-03-26T07:12:10.729Z,82.38
2019-03-26T07:13:10.705Z,82.38
2019-03-26T07:14:10.687Z,82.19
2019-03-26T07:15:10.667Z,82.19
2019-03-26T07:16:10.646Z,82.38
2019-03-26T07:17:10.633Z,82.48
2019-03-26T07:18:10.608Z,82.48
2019-03-26T07:19:10.592Z,82.57
2019-03-26T07:20:10.655Z,82.09
2019-03-26T07:21:10.550Z,82.48
2019-03-26T07:22:10.526Z,82.38
2019-03-26T07:23:10.508Z,82.00
2019-03-26T07:24:10.490Z,82.48
2019-03-26T07:25:10.466Z,82.57
2019-03-26T07:26:10.450Z,82.57
2019-03-26T07:27:10.424Z,82.28
2019-03-26T07:28:10.404Z,82.38
2019-03-26T07:29:10.382Z,82.67
2019-03-26T07:30:10.366Z,82.38
2019-03-26T07:31:10.344Z,82.48
2019-03-26T07:32:10.319Z,82.28
2019-03-26T07:33:10.305Z,82.57
2019-03-26T07:34:10.291Z,82.19
2019-03-26T07:35:10.261Z,82.28
2019-03-26T07:36:10.239Z,82.48
2019-03-26T07:37:10.219Z,82.57
2019-03-26T07:38:10.206Z,83.33
2019-03-26T07:39:10.187Z,82.76
2019-03-26T07:40:10.165Z,82.09
2019-03-26T07:41:10.143Z,82.38
2019-03-26T07:42:10.130Z,82.48
2019-03-26T07:43:10.105Z,82.95
2019-03-26T07:44:10.086Z,83.37
2019-03-26T07:45:10.064Z,82.61
2019-03-26T07:46:10.042Z,82.14
2019-03-26T07:47:10.021Z,82.23
2019-03-26T07:48:09.998Z,82.42
2019-03-26T07:49:09.982Z,82.32
2019-03-26T07:50:09.967Z,82.51
2019-03-26T07:51:09.949Z,82.14
2019-03-26T07:52:09.922Z,82.32
2019-03-26T07:53:09.901Z,82.14
2019-03-26T07:54:09.881Z,80.99
2019-03-26T07:55:09.862Z,81.09
2019-03-26T07:56:09.842Z,81.18
2019-03-26T07:57:09.825Z,80.52
2019-03-26T07:58:09.800Z,80.61
2019-03-26T07:59:09.780Z,80.46
2019-03-26T08:00:09.761Z,80.65
2019-03-26T08:01:09.740Z,79.51
2019-03-26T08:02:09.720Z,78.98
2019-03-26T08:03:09.700Z,77.74
2019-03-26T08:04:12.464Z,77.26
2019-03-26T08:05:09.661Z,76.79
2019-03-26T08:06:09.648Z,76.54
2019-03-26T08:07:09.627Z,76.64
2019-03-26T08:08:09.606Z,75.93
2019-03-26T08:09:09.631Z,75.64
2019-03-26T08:10:09.572Z,75.87
2019-03-26T08:11:09.554Z,75.59
2019-03-26T08:12:09.537Z,75.11
2019-03-26T08:13:09.521Z,75.36
2019-03-26T08:14:09.633Z,74.88
2019-03-26T08:15:09.507Z,75.49
2019-03-26T08:16:09.459Z,75.11
2019-03-26T08:17:09.457Z,75.26
2019-03-26T08:18:09.425Z,75.20
2019-03-26T08:19:09.412Z,74.96
2019-03-26T08:20:12.385Z,74.38
2019-03-26T08:21:09.376Z,74.35
2019-03-26T08:22:09.431Z,75.96
2019-03-26T08:23:09.346Z,76.64
2019-03-26T08:24:09.318Z,77.30
2019-03-26T08:25:09.304Z,75.20
2019-03-26T08:26:09.289Z,74.06
2019-03-26T08:27:09.281Z,75.01
2019-03-26T08:28:09.255Z,75.01
2019-03-26T08:29:09.240Z,74.79
2019-03-26T08:30:09.213Z,75.36
2019-03-26T08:31:09.194Z,75.07
2019-03-26T08:32:09.175Z,74.50
2019-03-26T08:33:09.155Z,74.88
2019-03-26T08:34:09.142Z,74.31
2019-03-26T08:35:09.121Z,74.88
2019-03-26T08:36:09.100Z,75.16
2019-03-26T08:37:09.083Z,74.21
2019-03-26T08:38:12.751Z,74.88
2019-03-26T08:39:09.051Z,74.88
2019-03-26T08:40:09.032Z,73.96
2019-03-26T08:41:09.013Z,72.38
2019-03-26T08:42:08.994Z,70.76
2019-03-26T08:43:08.978Z,70.38
2019-03-26T08:44:08.958Z,71.30
2019-03-26T08:45:08.939Z,72.06
2019-03-26T08:46:08.999Z,72.63
2019-03-26T08:47:08.906Z,72.25
2019-03-26T08:48:08.887Z,72.28
2019-03-26T08:49:08.870Z,72.48
2019-03-26T08:50:08.851Z,72.57
2019-03-26T08:51:08.844Z,72.38
2019-03-26T08:52:08.820Z,71.04
2019-03-26T08:53:08.804Z,71.11
2019-03-26T08:54:08.786Z,71.68
2019-03-26T08:55:08.768Z,72.92
2019-03-26T08:56:08.752Z,72.82
2019-03-26T08:57:08.730Z,73.68
2019-03-26T08:58:08.716Z,74.35
2019-03-26T08:59:08.695Z,74.44
2019-03-26T09:00:08.681Z,74.44
2019-03-26T09:01:08.660Z,74.50
2019-03-26T09:02:08.643Z,74.02
2019-03-26T09:03:08.625Z,74.98
2019-03-26T09:04:08.603Z,74.79
2019-03-26T09:05:08.598Z,75.36
2019-03-26T09:06:08.574Z,75.74
2019-03-26T09:07:10.962Z,76.59
2019-03-26T09:08:08.532Z,76.50
2019-03-26T09:09:08.518Z,75.55
2019-03-26T09:10:08.501Z,76.69
2019-03-26T09:11:08.490Z,76.79
2019-03-26T09:12:08.457Z,77.45
2019-03-26T09:13:08.439Z,77.17
2019-03-26T09:14:08.424Z,77.74
2019-03-26T09:15:08.407Z,78.03
2019-03-26T09:16:08.389Z,78.17
2019-03-26T09:17:08.365Z,79.13
2019-03-26T09:18:08.346Z,79.51
2019-03-26T09:19:08.332Z,80.27
2019-03-26T09:20:08.310Z,80.84
2019-03-26T09:21:08.290Z,81.41
2019-03-26T09:22:08.274Z,81.79
2019-03-26T09:23:08.258Z,82.56
2019-03-26T09:24:08.236Z,82.65
2019-03-26T09:25:08.214Z,82.56
2019-03-26T09:26:08.196Z,82.18
2019-03-26T09:27:08.181Z,82.93
2019-03-26T09:28:08.157Z,83.41
2019-03-26T09:29:08.143Z,83.13
2019-03-26T09:30:08.126Z,83.89
2019-03-26T09:31:08.103Z,83.03
2019-03-26T09:32:08.082Z,82.08
2019-03-26T09:33:08.064Z,82.18
2019-03-26T09:34:09.893Z,82.93
2019-03-26T09:35:08.025Z,82.75
2019-03-26T09:36:08.007Z,82.93
2019-03-26T09:37:07.983Z,82.93
2019-03-26T09:38:07.964Z,83.03
2019-03-26T09:39:07.947Z,83.80
2019-03-26T09:40:07.924Z,83.70
2019-03-26T09:41:07.912Z,83.61
2019-03-26T09:42:07.887Z,83.98
2019-03-26T09:43:07.868Z,83.98
2019-03-26T09:44:07.850Z,83.89
2019-03-26T09:45:07.829Z,84.33
2019-03-26T09:46:07.812Z,84.70
2019-03-26T09:47:15.959Z,84.99
2019-03-26T09:48:07.778Z,85.22
2019-03-26T09:49:07.759Z,85.32
2019-03-26T09:50:07.736Z,84.75
2019-03-26T09:51:10.662Z,85.03
2019-03-26T09:52:07.693Z,84.27
2019-03-26T09:53:07.676Z,84.17
2019-03-26T09:54:07.655Z,83.98
2019-03-26T09:55:07.640Z,83.61
2019-03-26T09:56:07.619Z,83.61
2019-03-26T09:57:07.609Z,83.70
2019-03-26T09:58:07.583Z,84.17
2019-03-26T09:59:07.568Z,84.03
2019-03-26T10:00:07.547Z,83.45
2019-03-26T10:01:07.521Z,83.07
2019-03-26T10:02:07.501Z,83.36
2019-03-26T10:03:07.486Z,84.03
2019-03-26T10:04:07.463Z,83.74
2019-03-26T10:05:07.443Z,83.74
2019-03-26T10:06:07.430Z,83.93
2019-03-26T10:07:20.512Z,83.26
2019-03-26T10:08:07.388Z,83.45
2019-03-26T10:09:07.368Z,83.26
2019-03-26T10:10:07.345Z,82.93
2019-03-26T10:11:07.335Z,83.22
2019-03-26T10:12:07.307Z,83.98
2019-03-26T10:13:07.294Z,84.36
2019-03-26T10:14:07.281Z,84.84
2019-03-26T10:15:07.269Z,85.22
2019-03-26T10:16:07.232Z,85.99
2019-03-26T10:17:07.215Z,86.08
2019-03-26T10:18:07.199Z,85.41
2019-03-26T10:19:07.176Z,85.41
2019-03-26T10:20:07.155Z,86.27
2019-03-26T10:21:07.136Z,85.80
2019-03-26T10:22:07.120Z,85.80
2019-03-26T10:23:07.101Z,85.70
2019-03-26T10:24:07.081Z,85.13
2019-03-26T10:25:10.481Z,85.41
2019-03-26T10:26:07.040Z,84.94
2019-03-26T10:27:07.020Z,84.41
2019-03-26T10:28:06.999Z,83.84
2019-03-26T10:29:19.051Z,83.36
2019-03-26T10:30:06.965Z,83.07
2019-03-26T10:31:06.954Z,81.93
2019-03-26T10:32:06.923Z,81.59
2019-03-26T10:33:06.904Z,81.59
2019-03-26T10:34:06.890Z,81.30
2019-03-26T10:35:06.870Z,81.12
2019-03-26T10:36:06.851Z,80.92
2019-03-26T10:37:06.832Z,81.21
2019-03-26T10:38:06.811Z,81.12
2019-03-26T10:39:06.794Z,80.44
2019-03-26T10:40:06.774Z,79.78
2019-03-26T10:41:06.754Z,79.40
2019-03-26T10:42:07.056Z,80.44
2019-03-26T10:43:06.722Z,80.83
2019-03-26T10:44:06.804Z,79.82
2019-03-26T10:45:06.687Z,79.72
2019-03-26T10:46:06.660Z,79.02
2019-03-26T10:47:06.649Z,79.88
2019-03-26T10:48:06.625Z,79.59
2019-03-26T10:49:06.619Z,79.82
2019-03-26T10:50:06.595Z,79.82
2019-03-26T10:51:06.572Z,79.53
2019-03-26T10:52:06.556Z,78.10
2019-03-26T10:53:06.546Z,78.77
2019-03-26T10:54:06.518Z,78.01
2019-03-26T10:55:06.502Z,77.34
2019-03-26T10:56:06.479Z,78.10
2019-03-26T10:57:06.472Z,77.91
2019-03-26T10:58:06.448Z,78.01
2019-03-26T10:59:06.435Z,77.91
2019-03-26T11:00:06.412Z,78.10
2019-03-26T11:01:06.392Z,78.23
2019-03-26T11:02:06.374Z,77.09
2019-03-26T11:03:06.357Z,76.81
2019-03-26T11:04:07.881Z,76.62
2019-03-26T11:05:06.319Z,75.47
2019-03-26T11:06:06.308Z,74.99
2019-03-26T11:07:06.289Z,74.42
2019-03-26T11:08:06.270Z,74.71
2019-03-26T11:09:19.985Z,74.52
2019-03-26T11:10:06.236Z,75.28
2019-03-26T11:11:06.225Z,75.47
2019-03-26T11:12:06.203Z,74.55
2019-03-26T11:13:06.186Z,74.08
2019-03-26T11:14:06.174Z,74.80
2019-03-26T11:15:06.158Z,74.42
2019-03-26T11:16:06.128Z,74.42
2019-03-26T11:17:06.113Z,75.09
2019-03-26T11:18:06.099Z,75.28
2019-03-26T11:19:06.083Z,75.57
2019-03-26T11:20:06.069Z,75.76
2019-03-26T11:21:06.042Z,76.04
2019-03-26T11:22:06.030Z,76.67
2019-03-26T11:23:06.018Z,77.62
2019-03-26T11:24:06.001Z,76.20
2019-03-26T11:25:05.983Z,76.10
2019-03-26T11:26:05.955Z,75.91
2019-03-26T11:27:05.938Z,76.29
2019-03-26T11:28:05.976Z,76.86
2019-03-26T11:29:05.905Z,77.44
2019-03-26T11:30:05.886Z,77.82
2019-03-26T11:31:05.865Z,78.67
2019-03-26T11:32:05.845Z,79.35
2019-03-26T11:33:05.829Z,79.91
2019-03-26T11:34:05.823Z,80.39
2019-03-26T11:35:05.795Z,80.77
2019-03-26T11:36:05.773Z,81.44
2019-03-26T11:37:05.757Z,81.02
2019-03-26T11:38:05.743Z,81.78
2019-03-26T11:39:05.724Z,82.64
2019-03-26T11:40:05.707Z,82.83
2019-03-26T11:41:05.684Z,82.64
2019-03-26T11:42:05.669Z,81.88
2019-03-26T11:43:05.648Z,82.64
2019-03-26T11:44:05.630Z,82.45
2019-03-26T11:45:05.609Z,82.97
2019-03-26T11:46:05.591Z,82.40
2019-03-26T11:47:05.572Z,82.59
2019-03-26T11:48:05.557Z,83.16
2019-03-26T11:49:05.549Z,83.02
2019-03-26T11:50:05.520Z,83.97
2019-03-26T11:51:05.500Z,84.26
2019-03-26T11:52:05.488Z,84.83
2019-03-26T11:53:05.471Z,85.21
2019-03-26T11:54:05.445Z,86.16
2019-03-26T11:55:05.426Z,87.40
2019-03-26T11:56:05.408Z,88.98
2019-03-26T11:57:05.397Z,89.36
2019-03-26T11:58:05.374Z,90.89
2019-03-26T11:59:05.354Z,91.94
2019-03-26T12:00:05.338Z,92.79
2019-03-26T12:01:05.312Z,93.55
2019-03-26T12:02:05.302Z,94.60
2019-03-26T12:03:05.292Z,95.94
2019-03-26T12:04:05.273Z,97.56
2019-03-26T12:05:05.243Z,97.36
2019-03-26T12:06:05.223Z,97.36
2019-03-26T12:07:05.205Z,97.36
2019-03-26T12:08:05.184Z,96.41
2019-03-26T12:09:05.165Z,97.08
2019-03-26T12:10:05.146Z,95.84
2019-03-26T12:11:05.132Z,95.08
2019-03-26T12:12:05.128Z,95.27
2019-03-26T12:13:05.098Z,94.46
2019-03-26T12:14:05.074Z,94.93
2019-03-26T12:15:05.054Z,93.60
2019-03-26T12:16:05.041Z,92.65
2019-03-26T12:17:05.022Z,92.65
2019-03-26T12:18:05.008Z,92.93
2019-03-26T12:19:04.976Z,92.74
2019-03-26T12:20:04.957Z,93.41
2019-03-26T12:21:04.937Z,93.70
2019-03-26T12:22:04.922Z,92.46
2019-03-26T12:23:04.904Z,91.22
2019-03-26T12:24:04.883Z,91.31
2019-03-26T12:25:04.871Z,91.46
2019-03-26T12:26:04.851Z,91.50
2019-03-26T12:27:04.832Z,90.64
2019-03-26T12:28:04.812Z,90.64
2019-03-26T12:29:04.794Z,90.26
2019-03-26T12:30:04.779Z,89.22
2019-03-26T12:31:04.764Z,90.64
2019-03-26T12:32:04.736Z,91.79
2019-03-26T12:33:04.726Z,92.36
2019-03-26T12:34:04.700Z,92.55
2019-03-26T12:35:04.682Z,91.79
2019-03-26T12:36:04.660Z,92.08
2019-03-26T12:37:04.653Z,92.74
2019-03-26T12:38:04.631Z,90.74
2019-03-26T12:39:04.627Z,89.98
2019-03-26T12:40:04.589Z,90.84
2019-03-26T12:41:04.569Z,91.60
2019-03-26T12:42:04.563Z,91.88
2019-03-26T12:43:04.533Z,91.79
2019-03-26T12:44:04.514Z,92.27
2019-03-26T12:45:06.911Z,92.17
2019-03-26T12:46:04.475Z,92.74
2019-03-26T12:47:04.458Z,91.60
2019-03-26T12:48:04.438Z,91.41
2019-03-26T12:49:04.422Z,91.79
2019-03-26T12:50:04.411Z,90.64
2019-03-26T12:51:04.390Z,90.26
2019-03-26T12:52:04.365Z,89.98